Time,TemperatureF,DewpointF,PressureIn,WindDirection,WindDirectionDegrees,WindSpeedMPH,WindSpeedGustMPH,Humidity,HourlyPrecipIn,Conditions,Clouds,dailyrainin,SoftwareType,DateUTC
2013-03-12 00:00:00,63.0,39.0,30.10,ENE,60,11.0,13.0,40,-99.99,,,-99.99,,2013-03-12 05:00:00,
2013-03-12 00:21:00,63.0,39.0,30.10,ENE,60,11.0,13.0,40,-99.99,,,-99.99,,2013-03-12 05:21:00,
2013-03-12 00:31:00,63.0,39.0,30.10,ENE,60,11.0,13.0,40,-99.99,,,-99.99,,2013-03-12 05:31:00,
2013-03-12 00:41:00,63.0,39.0,30.10,ENE,60,11.0,13.0,40,-99.99,,,-99.99,,2013-03-12 05:41:00,
2013-03-12 00:51:00,63.0,39.0,30.10,ENE,60,11.0,13.0,40,-99.99,,,-99.99,,2013-03-12 05:51:00,
2013-03-12 01:00:00,63.0,39.0,30.10,ENE,70,15.0,15.0,41,-99.99,,,-99.99,,2013-03-12 06:00:00,
2013-03-12 01:21:00,63.0,39.0,30.10,ENE,70,15.0,15.0,41,-99.99,,,-99.99,,2013-03-12 06:21:00,
2013-03-12 01:31:00,63.0,39.0,30.10,ENE,70,15.0,15.0,41,-99.99,,,-99.99,,2013-03-12 06:31:00,
2013-03-12 01:41:00,63.0,39.0,30.10,ENE,70,15.0,15.0,41,-99.99,,,-99.99,,2013-03-12 06:41:00,
2013-03-12 01:51:00,63.0,39.0,30.10,ENE,70,15.0,15.0,41,-99.99,,,-99.99,,2013-03-12 06:51:00,
2013-03-12 02:00:00,62.0,37.0,30.09,East,80,15.0,16.0,39,-99.99,,,-99.99,,2013-03-12 07:00:00,
2013-03-12 02:21:00,62.0,37.0,30.09,East,80,15.0,16.0,39,-99.99,,,-99.99,,2013-03-12 07:21:00,
2013-03-12 02:31:00,62.0,37.0,30.09,East,80,15.0,16.0,39,-99.99,,,-99.99,,2013-03-12 07:31:00,
2013-03-12 02:41:00,62.0,37.0,30.09,East,80,15.0,16.0,39,-99.99,,,-99.99,,2013-03-12 07:41:00,
2013-03-12 02:52:00,62.0,37.0,30.09,East,80,15.0,16.0,39,-99.99,,,-99.99,,2013-03-12 07:52:00,
2013-03-12 03:00:00,62.0,41.0,30.09,East,80,14.0,15.0,46,-99.99,,,-99.99,,2013-03-12 08:00:00,
2013-03-12 03:21:00,62.0,41.0,30.09,East,80,14.0,15.0,46,-99.99,,,-99.99,,2013-03-12 08:21:00,
2013-03-12 03:31:00,62.0,41.0,30.09,East,80,14.0,15.0,46,-99.99,,,-99.99,,2013-03-12 08:31:00,
2013-03-12 03:41:00,62.0,41.0,30.09,East,80,14.0,15.0,46,-99.99,,,-99.99,,2013-03-12 08:41:00,
2013-03-12 03:51:00,62.0,41.0,30.09,East,80,14.0,15.0,46,-99.99,,,-99.99,,2013-03-12 08:51:00,
2013-03-12 04:00:00,62.0,44.0,30.08,East,80,15.0,17.0,51,-99.99,,,-99.99,,2013-03-12 09:00:00,
2013-03-12 04:31:00,62.0,44.0,30.08,East,80,15.0,17.0,51,-99.99,,,-99.99,,2013-03-12 09:31:00,
2013-03-12 04:41:00,62.0,44.0,30.08,East,80,15.0,17.0,51,-99.99,,,-99.99,,2013-03-12 09:41:00,
2013-03-12 04:51:00,62.0,44.0,30.08,East,80,15.0,17.0,51,-99.99,,,-99.99,,2013-03-12 09:51:00,
2013-03-12 05:00:00,62.0,43.0,30.09,ESE,110,9.0,10.0,49,-99.99,,,-99.99,,2013-03-12 10:00:00,
2013-03-12 05:22:00,62.0,43.0,30.09,ESE,110,9.0,10.0,49,-99.99,,,-99.99,,2013-03-12 10:22:00,
2013-03-12 05:31:00,62.0,43.0,30.09,ESE,110,9.0,10.0,49,-99.99,,,-99.99,,2013-03-12 10:31:00,
2013-03-12 05:41:00,62.0,43.0,30.09,ESE,110,9.0,10.0,49,-99.99,,,-99.99,,2013-03-12 10:41:00,
2013-03-12 05:51:00,62.0,43.0,30.09,ESE,110,9.0,10.0,49,-99.99,,,-99.99,,2013-03-12 10:51:00,
2013-03-12 06:00:00,62.0,41.0,30.11,ESE,110,8.0,8.0,46,-99.99,,,-99.99,,2013-03-12 11:00:00,
2013-03-12 06:21:00,62.0,41.0,30.11,ESE,110,8.0,8.0,46,-99.99,,,-99.99,,2013-03-12 11:21:00,
2013-03-12 06:31:00,62.0,41.0,30.11,ESE,110,8.0,8.0,46,-99.99,,,-99.99,,2013-03-12 11:31:00,
2013-03-12 06:42:00,62.0,41.0,30.11,ESE,110,8.0,8.0,46,-99.99,,,-99.99,,2013-03-12 11:42:00,
2013-03-12 06:51:00,62.0,41.0,30.11,ESE,110,8.0,8.0,46,-99.99,,,-99.99,,2013-03-12 11:51:00,
2013-03-12 07:00:00,62.0,42.0,30.12,ESE,110,6.0,7.0,48,-99.99,,,-99.99,,2013-03-12 12:00:00,
2013-03-12 07:21:00,62.0,42.0,30.12,ESE,110,6.0,7.0,48,-99.99,,,-99.99,,2013-03-12 12:21:00,
2013-03-12 07:31:00,62.0,42.0,30.12,ESE,110,6.0,7.0,48,-99.99,,,-99.99,,2013-03-12 12:31:00,
2013-03-12 07:41:00,62.0,42.0,30.12,ESE,110,6.0,7.0,48,-99.99,,,-99.99,,2013-03-12 12:41:00,
2013-03-12 07:51:00,62.0,42.0,30.12,ESE,110,6.0,7.0,48,-99.99,,,-99.99,,2013-03-12 12:51:00,
2013-03-12 08:00:00,57.0,48.0,30.14,WSW,250,6.0,6.0,71,-99.99,,,-99.99,,2013-03-12 13:00:00,
2013-03-12 08:21:00,57.0,48.0,30.14,WSW,250,6.0,6.0,71,-99.99,,,-99.99,,2013-03-12 13:21:00,
2013-03-12 08:31:00,57.0,48.0,30.14,WSW,250,6.0,6.0,71,-99.99,,,-99.99,,2013-03-12 13:31:00,
2013-03-12 08:42:00,57.0,48.0,30.14,WSW,250,6.0,6.0,71,-99.99,,,-99.99,,2013-03-12 13:42:00,
2013-03-12 08:52:00,57.0,48.0,30.14,WSW,250,6.0,6.0,71,-99.99,,,-99.99,,2013-03-12 13:52:00,
2013-03-12 09:00:00,60.0,50.0,30.17,WSW,240,3.0,5.0,71,-99.99,,,-99.99,,2013-03-12 14:00:00,
2013-03-12 09:21:00,60.0,50.0,30.17,WSW,240,3.0,5.0,71,-99.99,,,-99.99,,2013-03-12 14:21:00,
2013-03-12 09:32:00,60.0,50.0,30.17,WSW,240,3.0,5.0,71,-99.99,,,-99.99,,2013-03-12 14:32:00,
2013-03-12 09:41:00,60.0,50.0,30.17,WSW,240,3.0,5.0,71,-99.99,,,-99.99,,2013-03-12 14:41:00,
2013-03-12 09:51:00,60.0,50.0,30.17,WSW,240,3.0,5.0,71,-99.99,,,-99.99,,2013-03-12 14:51:00,
2013-03-12 10:00:00,62.0,47.0,30.19,SSW,210,3.0,3.0,58,-99.99,,,-99.99,,2013-03-12 15:00:00,
2013-03-12 10:21:00,62.0,47.0,30.19,SSW,210,3.0,3.0,58,-99.99,,,-99.99,,2013-03-12 15:21:00,
2013-03-12 10:31:00,62.0,47.0,30.19,SSW,210,3.0,3.0,58,-99.99,,,-99.99,,2013-03-12 15:31:00,
2013-03-12 10:41:00,62.0,47.0,30.19,SSW,210,3.0,3.0,58,-99.99,,,-99.99,,2013-03-12 15:41:00,
2013-03-12 10:52:00,62.0,47.0,30.19,SSW,210,3.0,3.0,58,-99.99,,,-99.99,,2013-03-12 15:52:00,
2013-03-12 11:21:00,63.0,47.0,30.20,South,170,3.0,5.0,54,-99.99,,,-99.99,,2013-03-12 16:21:00,
2013-03-12 11:32:00,63.0,47.0,30.20,South,170,3.0,5.0,54,-99.99,,,-99.99,,2013-03-12 16:32:00,
2013-03-12 11:42:00,63.0,47.0,30.20,South,170,3.0,5.0,54,-99.99,,,-99.99,,2013-03-12 16:42:00,
2013-03-12 11:52:00,63.0,47.0,30.20,South,170,3.0,5.0,54,-99.99,,,-99.99,,2013-03-12 16:52:00,
2013-03-12 12:00:00,64.0,47.0,30.21,SSW,200,2.0,2.0,53,-99.99,,,-99.99,,2013-03-12 17:00:00,
2013-03-12 12:21:00,64.0,47.0,30.21,SSW,200,2.0,2.0,53,-99.99,,,-99.99,,2013-03-12 17:21:00,
2013-03-12 12:32:00,64.0,47.0,30.21,SSW,200,2.0,2.0,53,-99.99,,,-99.99,,2013-03-12 17:32:00,
2013-03-12 12:42:00,64.0,47.0,30.21,SSW,200,2.0,2.0,53,-99.99,,,-99.99,,2013-03-12 17:42:00,
2013-03-12 12:52:00,64.0,47.0,30.21,SSW,200,2.0,2.0,53,-99.99,,,-99.99,,2013-03-12 17:52:00,
2013-03-12 13:00:00,64.0,46.0,30.19,ESE,110,2.0,3.0,52,-99.99,,,-99.99,,2013-03-12 18:00:00,
2013-03-12 13:21:00,64.0,46.0,30.19,ESE,110,2.0,3.0,52,-99.99,,,-99.99,,2013-03-12 18:21:00,
2013-03-12 13:32:00,64.0,46.0,30.19,ESE,110,2.0,3.0,52,-99.99,,,-99.99,,2013-03-12 18:32:00,
2013-03-12 13:42:00,64.0,46.0,30.19,ESE,110,2.0,3.0,52,-99.99,,,-99.99,,2013-03-12 18:42:00,
2013-03-12 13:52:00,64.0,46.0,30.19,ESE,110,2.0,3.0,52,-99.99,,,-99.99,,2013-03-12 18:52:00,
2013-03-12 14:00:00,63.0,45.0,30.16,East,100,5.0,6.0,52,-99.99,,,-99.99,,2013-03-12 19:00:00,
2013-03-12 14:22:00,63.0,45.0,30.16,East,100,5.0,6.0,52,-99.99,,,-99.99,,2013-03-12 19:22:00,
2013-03-12 14:32:00,63.0,45.0,30.16,East,100,5.0,6.0,52,-99.99,,,-99.99,,2013-03-12 19:32:00,
2013-03-12 14:43:00,63.0,45.0,30.16,East,100,5.0,6.0,52,-99.99,,,-99.99,,2013-03-12 19:43:00,
2013-03-12 14:52:00,63.0,45.0,30.16,East,100,5.0,6.0,52,-99.99,,,-99.99,,2013-03-12 19:52:00,
2013-03-12 15:00:00,63.0,45.0,30.15,East,100,8.0,9.0,51,-99.99,,,-99.99,,2013-03-12 20:00:00,
2013-03-12 15:22:00,63.0,45.0,30.15,East,100,8.0,9.0,51,-99.99,,,-99.99,,2013-03-12 20:22:00,
2013-03-12 15:32:00,63.0,45.0,30.15,East,100,8.0,9.0,51,-99.99,,,-99.99,,2013-03-12 20:32:00,
2013-03-12 15:41:00,63.0,45.0,30.15,East,100,8.0,9.0,51,-99.99,,,-99.99,,2013-03-12 20:41:00,
2013-03-12 15:52:00,63.0,45.0,30.15,East,100,8.0,9.0,51,-99.99,,,-99.99,,2013-03-12 20:52:00,
2013-03-12 16:00:00,64.0,44.0,30.14,East,100,11.0,13.0,47,-99.99,,,-99.99,,2013-03-12 21:00:00,
2013-03-12 16:21:00,64.0,44.0,30.14,East,100,11.0,13.0,47,-99.99,,,-99.99,,2013-03-12 21:21:00,
2013-03-12 16:32:00,64.0,44.0,30.14,East,100,11.0,13.0,47,-99.99,,,-99.99,,2013-03-12 21:32:00,
2013-03-12 16:42:00,64.0,44.0,30.14,East,100,11.0,13.0,47,-99.99,,,-99.99,,2013-03-12 21:42:00,
2013-03-12 16:52:00,64.0,44.0,30.14,East,100,11.0,13.0,47,-99.99,,,-99.99,,2013-03-12 21:52:00,
2013-03-12 17:00:00,64.0,40.0,30.13,East,90,14.0,15.0,41,-99.99,,,-99.99,,2013-03-12 22:00:00,
2013-03-12 17:21:00,64.0,40.0,30.13,East,90,14.0,15.0,41,-99.99,,,-99.99,,2013-03-12 22:21:00,
2013-03-12 17:32:00,64.0,40.0,30.13,East,90,14.0,15.0,41,-99.99,,,-99.99,,2013-03-12 22:32:00,
2013-03-12 18:00:00,64.0,44.0,30.13,East,100,14.0,16.0,47,-99.99,,,-99.99,,2013-03-12 23:00:00,
2013-03-12 18:22:00,64.0,44.0,30.13,East,100,14.0,16.0,47,-99.99,,,-99.99,,2013-03-12 23:22:00,
2013-03-12 18:33:00,64.0,44.0,30.13,East,100,14.0,16.0,47,-99.99,,,-99.99,,2013-03-12 23:33:00,
2013-03-12 18:42:00,64.0,44.0,30.13,East,100,14.0,16.0,47,-99.99,,,-99.99,,2013-03-12 23:42:00,
2013-03-12 18:51:00,64.0,44.0,30.13,East,100,14.0,16.0,47,-99.99,,,-99.99,,2013-03-12 23:51:00,
2013-03-12 19:00:00,64.0,46.0,30.14,East,100,14.0,14.0,52,-99.99,,,-99.99,,2013-03-13 00:00:00,
2013-03-12 19:22:00,64.0,46.0,30.14,East,100,14.0,14.0,52,-99.99,,,-99.99,,2013-03-13 00:22:00,
2013-03-12 19:32:00,64.0,46.0,30.14,East,100,14.0,14.0,52,-99.99,,,-99.99,,2013-03-13 00:32:00,
2013-03-12 19:41:00,64.0,46.0,30.14,East,100,14.0,14.0,52,-99.99,,,-99.99,,2013-03-13 00:41:00,
2013-03-12 19:52:00,64.0,46.0,30.14,East,100,14.0,14.0,52,-99.99,,,-99.99,,2013-03-13 00:52:00,
2013-03-12 20:00:00,64.0,49.0,30.16,East,100,14.0,15.0,59,-99.99,,,-99.99,,2013-03-13 01:00:00,
2013-03-12 20:21:00,64.0,49.0,30.16,East,100,14.0,15.0,59,-99.99,,,-99.99,,2013-03-13 01:21:00,
2013-03-12 20:31:00,64.0,49.0,30.16,East,100,14.0,15.0,59,-99.99,,,-99.99,,2013-03-13 01:31:00,
2013-03-12 20:42:00,64.0,49.0,30.16,East,100,14.0,15.0,59,-99.99,,,-99.99,,2013-03-13 01:42:00,
2013-03-12 20:51:00,64.0,49.0,30.16,East,100,14.0,15.0,59,-99.99,,,-99.99,,2013-03-13 01:51:00,
2013-03-12 21:00:00,64.0,50.0,30.19,East,90,15.0,16.0,59,-99.99,,,-99.99,,2013-03-13 02:00:00,
2013-03-12 21:21:00,64.0,50.0,30.19,East,90,15.0,16.0,59,-99.99,,,-99.99,,2013-03-13 02:21:00,
2013-03-12 21:31:00,64.0,50.0,30.19,East,90,15.0,16.0,59,-99.99,,,-99.99,,2013-03-13 02:31:00,
2013-03-12 21:42:00,64.0,50.0,30.19,East,90,15.0,16.0,59,-99.99,,,-99.99,,2013-03-13 02:42:00,
2013-03-12 21:51:00,64.0,50.0,30.19,East,90,15.0,16.0,59,-99.99,,,-99.99,,2013-03-13 02:51:00,
2013-03-12 22:00:00,63.0,51.0,30.22,East,100,16.0,17.0,63,-99.99,,,-99.99,,2013-03-13 03:00:00,
2013-03-12 22:21:00,63.0,51.0,30.22,East,100,16.0,17.0,63,-99.99,,,-99.99,,2013-03-13 03:21:00,
2013-03-12 22:31:00,63.0,51.0,30.22,East,100,16.0,17.0,63,-99.99,,,-99.99,,2013-03-13 03:31:00,
2013-03-12 22:41:00,63.0,51.0,30.22,East,100,16.0,17.0,63,-99.99,,,-99.99,,2013-03-13 03:41:00,
2013-03-12 22:51:00,63.0,51.0,30.22,East,100,16.0,17.0,63,-99.99,,,-99.99,,2013-03-13 03:51:00,
2013-03-12 23:00:00,63.0,53.0,30.23,ESE,110,16.0,17.0,67,-99.99,,,-99.99,,2013-03-13 04:00:00,
2013-03-12 23:21:00,63.0,53.0,30.23,ESE,110,16.0,17.0,67,-99.99,,,-99.99,,2013-03-13 04:21:00,
2013-03-12 23:31:00,63.0,53.0,30.23,ESE,110,16.0,17.0,67,-99.99,,,-99.99,,2013-03-13 04:31:00,
2013-03-12 23:42:00,63.0,53.0,30.23,ESE,110,16.0,17.0,67,-99.99,,,-99.99,,2013-03-13 04:42:00,
2013-03-12 23:52:00,63.0,53.0,30.23,ESE,110,16.0,17.0,67,-99.99,,,-99.99,,2013-03-13 04:52:00,